createdAt,value
2018-06-04T00:02:37.688Z,2.27
2018-06-04T00:05:43.239Z,2.13
2018-06-04T00:08:48.025Z,2.30
2018-06-04T00:11:52.354Z,2.40
2018-06-04T00:14:56.794Z,2.17
2018-06-04T00:18:01.061Z,2.53
2018-06-04T00:21:05.336Z,2.30
2018-06-04T00:24:09.696Z,2.50
2018-06-04T00:27:13.978Z,2.80
2018-06-04T00:30:18.430Z,2.73
2018-06-04T00:33:22.741Z,2.30
2018-06-04T00:36:27.233Z,2.73
2018-06-04T00:39:31.485Z,2.43
2018-06-04T00:42:35.623Z,2.20
2018-06-04T00:45:39.983Z,2.13
2018-06-04T00:48:44.413Z,1.80
2018-06-04T00:51:48.853Z,2.07
2018-06-04T00:54:53.108Z,2.40
2018-06-04T00:57:57.633Z,2.60
2018-06-04T01:01:02.409Z,2.47
2018-06-04T01:04:06.697Z,2.73
2018-06-04T01:07:11.671Z,3.15
2018-06-04T01:10:16.038Z,2.73
2018-06-04T01:13:20.299Z,3.50
2018-06-04T01:16:24.570Z,2.67
2018-06-04T01:19:28.841Z,3.23
2018-06-04T01:22:33.337Z,2.92
2018-06-04T01:25:37.614Z,2.60
2018-06-04T01:28:41.873Z,3.27
2018-06-04T01:31:46.128Z,2.77
2018-06-04T01:34:51.005Z,2.70
2018-06-04T01:37:55.273Z,3.08
2018-06-04T01:40:59.599Z,2.63
2018-06-04T01:44:04.773Z,3.00
2018-06-04T01:47:09.388Z,2.73
2018-06-04T01:50:13.650Z,2.93
2018-06-04T01:53:17.906Z,2.47
2018-06-04T01:56:22.628Z,2.60
2018-06-04T01:59:27.338Z,2.80
2018-06-04T02:02:31.640Z,2.73
2018-06-04T02:05:35.894Z,2.90
2018-06-04T02:08:40.169Z,2.80
2018-06-04T02:11:52.594Z,2.60
2018-06-04T02:14:56.843Z,2.77
2018-06-04T02:18:01.118Z,3.00
2018-06-04T02:21:05.389Z,2.67
2018-06-04T02:24:09.655Z,2.50
2018-06-04T02:27:13.905Z,2.40
2018-06-04T02:30:18.162Z,2.00
2018-06-04T02:33:22.441Z,2.23
2018-06-04T02:36:26.711Z,2.80
2018-06-04T02:39:30.990Z,3.30
2018-06-04T02:42:35.259Z,2.97
2018-06-04T02:45:39.555Z,2.97
2018-06-04T02:48:43.852Z,3.37
2018-06-04T02:51:48.130Z,2.83
2018-06-04T02:54:52.394Z,3.90
2018-06-04T02:57:56.681Z,3.07
2018-06-04T03:01:00.993Z,3.47
2018-06-04T03:04:05.669Z,3.17
2018-06-04T03:07:09.755Z,3.57
2018-06-04T03:10:14.092Z,3.77
2018-06-04T03:13:18.381Z,2.97
2018-06-04T03:16:23.346Z,2.80
2018-06-04T03:19:27.909Z,2.67
2018-06-04T03:22:32.239Z,2.60
2018-06-04T03:25:36.537Z,2.50
2018-06-04T03:28:40.961Z,2.55
2018-06-04T03:31:45.404Z,2.60
2018-06-04T03:34:49.719Z,2.60
2018-06-04T03:37:54.048Z,2.40
2018-06-04T03:40:58.393Z,3.13
2018-06-04T03:44:02.686Z,2.43
2018-06-04T03:47:07.324Z,2.87
2018-06-04T03:50:11.597Z,2.70
2018-06-04T03:53:15.901Z,3.05
2018-06-04T03:56:20.900Z,3.03
2018-06-04T03:59:25.530Z,2.87
2018-06-04T04:02:29.830Z,3.12
2018-06-04T04:05:34.797Z,2.70
2018-06-04T04:08:39.327Z,2.50
2018-06-04T04:11:43.607Z,2.33
2018-06-04T04:14:48.397Z,2.43
2018-06-04T04:17:52.682Z,2.80
2018-06-04T04:20:56.954Z,2.80
2018-06-04T04:24:02.070Z,2.87
2018-06-04T04:27:06.706Z,2.27
2018-06-04T04:30:11.267Z,2.93
2018-06-04T04:33:15.603Z,3.00
2018-06-04T04:36:19.958Z,3.43
2018-06-04T04:39:24.306Z,2.73
2018-06-04T04:42:28.653Z,2.73
2018-06-04T04:45:35.026Z,3.30
2018-06-04T04:48:39.398Z,3.60
2018-06-04T04:51:43.678Z,3.65
2018-06-04T04:54:48.273Z,3.67
2018-06-04T04:57:53.217Z,3.27
2018-06-04T05:00:57.726Z,3.37
2018-06-04T05:04:01.991Z,2.93
2018-06-04T05:07:06.938Z,3.40
2018-06-04T05:10:11.482Z,3.70
2018-06-04T05:13:15.789Z,3.50
2018-06-04T05:16:20.053Z,3.20
2018-06-04T05:19:24.373Z,3.70
2018-06-04T05:22:28.775Z,3.40
2018-06-04T05:25:33.140Z,3.70
2018-06-04T05:28:37.454Z,3.37
2018-06-04T05:31:41.935Z,3.03
2018-06-04T05:34:46.223Z,3.03
2018-06-04T05:37:50.627Z,3.67
2018-06-04T05:40:55.848Z,3.73
2018-06-04T05:44:00.156Z,3.70
2018-06-04T05:47:04.479Z,4.27
2018-06-04T05:50:08.893Z,3.60
2018-06-04T05:53:13.194Z,3.50
2018-06-04T05:56:17.792Z,3.70
2018-06-04T05:59:22.087Z,3.53
2018-06-04T06:02:26.476Z,3.30
2018-06-04T06:05:30.822Z,3.40
2018-06-04T06:08:35.144Z,3.83
2018-06-04T06:11:39.623Z,2.93
2018-06-04T06:14:44.275Z,3.50
2018-06-04T06:17:49.406Z,3.65
2018-06-04T06:20:54.017Z,3.50
2018-06-04T06:23:58.340Z,3.00
2018-06-04T06:27:03.949Z,2.53
2018-06-04T06:30:08.688Z,2.30
2018-06-04T06:33:13.080Z,2.50
2018-06-04T06:36:17.424Z,2.50
2018-06-04T06:39:21.830Z,2.30
2018-06-04T06:42:26.387Z,2.20
2018-06-04T06:45:31.411Z,2.70
2018-06-04T06:48:35.760Z,2.22
2018-06-04T06:51:40.199Z,2.60
2018-06-04T06:54:44.760Z,2.37
2018-06-04T06:57:49.146Z,1.97
2018-06-04T07:00:53.871Z,2.17
2018-06-04T07:03:58.276Z,2.50
2018-06-04T07:07:02.809Z,2.10
2018-06-04T07:10:07.520Z,2.03
2018-06-04T07:13:12.010Z,1.93
2018-06-04T07:16:16.379Z,2.00
2018-06-04T07:19:20.656Z,2.47
2018-06-04T07:22:25.015Z,2.07
2018-06-04T07:25:29.825Z,2.30
2018-06-04T07:28:34.159Z,2.60
2018-06-04T07:31:38.427Z,2.30
2018-06-04T07:34:42.795Z,2.63
2018-06-04T07:37:47.168Z,2.87
2018-06-04T07:40:51.605Z,2.10
2018-06-04T07:43:55.954Z,1.93
2018-06-04T07:47:00.378Z,2.57
2018-06-04T07:50:04.729Z,2.27
2018-06-04T07:53:09.170Z,2.47
2018-06-04T07:56:13.461Z,2.00
2018-06-04T07:59:17.757Z,1.90
2018-06-04T08:02:22.329Z,1.77
2018-06-04T08:05:26.743Z,2.27
2018-06-04T08:08:31.236Z,2.33
2018-06-04T08:11:35.517Z,2.27
2018-06-04T08:14:39.886Z,2.43
2018-06-04T08:17:43.957Z,2.00
2018-06-04T08:20:48.258Z,2.23
2018-06-04T08:23:52.645Z,2.60
2018-06-04T08:26:57.382Z,1.93
2018-06-04T08:30:01.643Z,2.30
2018-06-04T08:33:06.271Z,2.17
2018-06-04T08:36:10.610Z,2.23
2018-06-04T08:39:14.870Z,1.83
2018-06-04T08:42:19.142Z,2.05
2018-06-04T08:45:25.095Z,2.63
2018-06-04T08:48:29.734Z,2.20
2018-06-04T08:51:34.137Z,2.33
2018-06-04T08:54:38.470Z,2.00
2018-06-04T08:57:43.641Z,2.13
2018-06-04T09:00:48.337Z,2.23
2018-06-04T09:03:53.104Z,2.60
2018-06-04T09:06:59.132Z,1.97
2018-06-04T09:10:03.531Z,2.33
2018-06-04T09:13:07.870Z,2.70
2018-06-04T09:16:12.422Z,2.00
2018-06-04T09:19:16.947Z,2.00
2018-06-04T09:22:21.390Z,2.13
2018-06-04T09:25:26.070Z,2.60
2018-06-04T09:28:31.196Z,1.87
2018-06-04T09:39:15.060Z,2.00
2018-06-04T09:42:19.369Z,2.47
2018-06-04T09:45:24.045Z,1.83
2018-06-04T09:48:28.883Z,1.90
2018-06-04T09:51:33.515Z,2.07
2018-06-04T09:54:38.023Z,1.80
2018-06-04T09:57:43.451Z,2.37
2018-06-04T10:00:47.866Z,2.07
2018-06-04T10:03:52.821Z,1.97
2018-06-04T10:07:29.483Z,2.03
2018-06-04T10:10:36.139Z,2.17
2018-06-04T10:13:41.459Z,2.13
2018-06-04T10:16:45.933Z,2.10
2018-06-04T10:19:50.577Z,1.90
2018-06-04T10:23:31.701Z,1.53
2018-06-04T10:27:09.149Z,1.80
2018-06-04T10:30:14.529Z,1.60
2018-06-04T10:33:18.813Z,1.87
2018-06-04T10:36:23.250Z,1.80
2018-06-04T10:39:27.538Z,1.63
2018-06-04T10:42:32.489Z,1.73
2018-06-04T10:45:36.785Z,1.67
2018-06-04T10:48:41.179Z,2.00
2018-06-04T10:51:45.866Z,1.80
2018-06-04T10:54:50.127Z,1.93
2018-06-04T10:57:54.436Z,1.90
2018-06-04T11:00:58.696Z,1.60
2018-06-04T11:04:02.990Z,1.80
2018-06-04T11:07:07.528Z,2.43
2018-06-04T11:10:11.799Z,1.83
2018-06-04T11:13:16.430Z,1.77
2018-06-04T11:16:21.023Z,2.20
2018-06-04T11:19:25.821Z,2.10
2018-06-04T11:22:30.194Z,2.03
2018-06-04T11:25:35.650Z,1.90
2018-06-04T11:28:39.899Z,1.90
2018-06-04T11:31:44.547Z,1.73
2018-06-04T11:34:48.549Z,1.60
2018-06-04T11:37:52.850Z,2.10
2018-06-04T11:40:57.112Z,1.93
2018-06-04T11:44:01.861Z,1.97
2018-06-04T11:47:06.536Z,2.10
2018-06-04T11:50:11.190Z,2.07
2018-06-04T11:53:15.375Z,2.10
2018-06-04T11:56:19.874Z,1.60
2018-06-04T11:59:24.197Z,1.87
2018-06-04T12:02:28.608Z,2.10
2018-06-04T12:05:33.179Z,2.10
2018-06-04T12:08:37.453Z,2.07
2018-06-04T12:11:42.086Z,2.20
2018-06-04T12:14:46.433Z,2.20
2018-06-04T12:17:50.793Z,2.17
2018-06-04T12:20:55.118Z,2.00
2018-06-04T12:23:59.566Z,2.10
2018-06-04T12:27:03.973Z,1.60
2018-06-04T12:30:08.312Z,2.20
2018-06-04T12:33:12.611Z,2.13
2018-06-04T12:36:17.058Z,2.20
2018-06-04T12:39:21.385Z,2.30
2018-06-04T12:42:25.934Z,2.10
2018-06-04T12:45:30.326Z,2.13
2018-06-04T12:48:34.605Z,1.70
2018-06-04T12:51:38.982Z,1.93
2018-06-04T12:54:43.281Z,1.70
2018-06-04T12:57:47.610Z,1.77
2018-06-04T13:00:51.934Z,1.77
2018-06-04T13:03:56.266Z,1.80
2018-06-04T13:07:00.534Z,2.20
2018-06-04T13:10:04.882Z,2.03
2018-06-04T13:13:10.329Z,2.10
2018-06-04T13:16:14.645Z,2.30
2018-06-04T13:19:19.428Z,2.23
2018-06-04T13:22:23.916Z,2.20
2018-06-04T13:25:28.626Z,2.10
2018-06-04T13:28:33.203Z,2.33
2018-06-04T13:31:37.602Z,2.00
2018-06-04T13:34:42.271Z,2.20
2018-06-04T13:37:46.891Z,2.10
2018-06-04T13:40:51.325Z,2.43
2018-06-04T13:43:58.025Z,1.90
2018-06-04T13:47:03.754Z,1.70
2018-06-04T13:50:08.503Z,1.97
2018-06-04T13:53:39.438Z,2.13
2018-06-04T13:56:43.850Z,2.10
2018-06-04T13:59:48.729Z,2.40
2018-06-04T14:02:53.291Z,2.23
2018-06-04T14:05:57.602Z,2.00
2018-06-04T14:09:01.962Z,2.07
2018-06-04T14:12:08.686Z,2.07
2018-06-04T14:15:13.085Z,2.33
2018-06-04T14:18:18.102Z,2.40
2018-06-04T14:21:22.406Z,2.30
2018-06-04T14:24:26.761Z,2.37
2018-06-04T14:27:31.181Z,2.53
2018-06-04T14:30:35.952Z,2.20
2018-06-04T14:33:40.828Z,2.17
2018-06-04T14:36:45.388Z,2.20
2018-06-04T14:39:49.995Z,2.70
2018-06-04T14:42:55.189Z,2.20
2018-06-04T14:46:00.573Z,2.30
2018-06-04T14:49:05.338Z,2.20
2018-06-04T14:52:10.027Z,2.33
2018-06-04T14:55:14.706Z,2.33
2018-06-04T14:58:19.078Z,2.00
2018-06-04T15:01:23.389Z,2.50
2018-06-04T15:04:27.901Z,2.40
2018-06-04T15:07:32.481Z,2.43
2018-06-04T15:10:37.354Z,2.43
2018-06-04T15:13:42.021Z,2.30
2018-06-04T15:16:46.507Z,2.10
2018-06-04T15:19:51.448Z,2.20
2018-06-04T15:22:56.037Z,2.10
2018-06-04T15:26:00.706Z,2.00
2018-06-04T15:29:05.523Z,1.93
2018-06-04T15:32:10.679Z,2.03
2018-06-04T15:35:15.307Z,2.23
2018-06-04T15:38:19.888Z,2.43
2018-06-04T15:41:24.463Z,2.20
2018-06-04T15:44:28.853Z,2.60
2018-06-04T15:47:33.318Z,1.87
2018-06-04T15:50:38.465Z,2.07
2018-06-04T15:53:43.187Z,2.07
2018-06-04T15:56:48.975Z,1.90
2018-06-04T15:59:53.621Z,1.77
2018-06-04T16:02:58.042Z,2.43
2018-06-04T16:06:02.368Z,2.13
2018-06-04T16:09:08.385Z,2.33
2018-06-04T16:12:12.745Z,2.10
2018-06-04T16:15:17.269Z,2.00
2018-06-04T16:18:21.624Z,2.08
2018-06-04T16:21:27.488Z,1.93
2018-06-04T16:24:31.781Z,2.03
2018-06-04T16:27:36.312Z,2.00
2018-06-04T16:30:40.642Z,1.90
2018-06-04T16:33:45.066Z,2.00
2018-06-04T16:36:49.481Z,1.77
2018-06-04T16:39:53.925Z,1.73
2018-06-04T16:42:58.726Z,1.80
2018-06-04T16:46:03.158Z,2.33
2018-06-04T16:49:07.617Z,1.97
2018-06-04T16:52:12.024Z,2.00
2018-06-04T16:55:16.456Z,1.70
2018-06-04T16:58:20.869Z,2.40
2018-06-04T17:01:25.293Z,2.13
2018-06-04T17:04:29.737Z,1.90
2018-06-04T17:07:34.202Z,2.03
2018-06-04T17:10:38.538Z,2.00
2018-06-04T17:13:43.166Z,2.20
2018-06-04T17:16:47.560Z,1.50
2018-06-04T17:19:52.001Z,2.17
2018-06-04T17:22:56.240Z,1.67
2018-06-04T17:26:00.566Z,1.80
2018-06-04T17:29:04.884Z,1.80
2018-06-04T17:32:09.209Z,2.20
2018-06-04T17:35:14.774Z,1.83
2018-06-04T17:38:19.226Z,2.70
2018-06-04T17:41:23.627Z,2.30
2018-06-04T17:44:28.030Z,2.33
2018-06-04T17:47:32.608Z,2.00
2018-06-04T17:50:37.660Z,2.00
2018-06-04T17:53:42.125Z,1.90
2018-06-04T17:56:46.473Z,1.80
2018-06-04T17:59:51.114Z,2.20
2018-06-04T18:02:56.290Z,2.50
2018-06-04T18:06:00.797Z,2.67
2018-06-04T18:09:08.743Z,2.93
2018-06-04T18:12:13.243Z,1.93
2018-06-04T18:15:18.012Z,1.80
2018-06-04T18:18:22.569Z,2.00
2018-06-04T18:21:28.146Z,2.06
2018-06-04T18:24:33.677Z,2.40
2018-06-04T18:27:38.163Z,2.17
2018-06-04T18:30:43.546Z,2.70
2018-06-04T18:33:48.355Z,2.53
2018-06-04T18:36:52.814Z,2.67
2018-06-04T18:39:57.197Z,2.37
2018-06-04T18:43:01.701Z,2.63
2018-06-04T18:46:06.193Z,2.80
2018-06-04T18:49:10.808Z,2.60
2018-06-04T18:52:15.741Z,3.10
2018-06-04T18:55:20.180Z,2.93
2018-06-04T18:58:25.315Z,3.87
2018-06-04T19:01:31.717Z,3.33
2018-06-04T19:04:36.175Z,2.70
2018-06-04T19:07:40.613Z,3.17
2018-06-04T19:10:45.241Z,3.03
2018-06-04T19:13:49.693Z,2.98
2018-06-04T19:16:54.573Z,3.20
2018-06-04T19:19:59.761Z,3.37
2018-06-04T19:23:04.219Z,3.17
2018-06-04T19:26:08.663Z,2.90
2018-06-04T19:29:13.104Z,2.73
2018-06-04T19:32:18.176Z,3.42
2018-06-04T19:35:22.660Z,3.10
2018-06-04T19:38:28.081Z,2.60
2018-06-04T19:41:32.509Z,3.03
2018-06-04T19:44:36.879Z,3.20
2018-06-04T19:47:41.590Z,3.40
2018-06-04T19:50:52.679Z,3.30
2018-06-04T19:53:56.971Z,3.30
2018-06-04T19:57:01.327Z,3.60
2018-06-04T20:00:06.543Z,3.40
2018-06-04T20:03:12.730Z,3.40
2018-06-04T20:06:17.678Z,3.77
2018-06-04T20:09:22.792Z,3.10
2018-06-04T20:12:27.381Z,3.70
2018-06-04T20:15:31.768Z,3.50
2018-06-04T20:18:45.019Z,3.77
2018-06-04T20:21:50.763Z,3.20
2018-06-04T20:25:03.143Z,3.23
2018-06-04T20:28:07.913Z,3.37
2018-06-04T20:31:12.358Z,3.67
2018-06-04T20:34:16.677Z,3.77
2018-06-04T20:37:21.130Z,4.00
2018-06-04T20:40:26.075Z,4.00
2018-06-04T20:43:30.542Z,3.70
2018-06-04T20:46:35.108Z,4.23
2018-06-04T20:49:39.504Z,4.27
2018-06-04T20:52:44.283Z,4.27
2018-06-04T20:55:48.508Z,4.40
2018-06-04T20:58:52.938Z,4.30
2018-06-04T21:01:57.283Z,3.47
2018-06-04T21:05:03.254Z,4.13
2018-06-04T21:08:07.874Z,4.03
2018-06-04T21:11:12.181Z,3.93
2018-06-04T21:14:16.881Z,4.20
2018-06-04T21:17:21.338Z,4.30
2018-06-04T21:20:25.836Z,3.87
2018-06-04T21:23:30.231Z,4.07
2018-06-04T21:26:34.826Z,4.43
2018-06-04T21:29:39.205Z,4.50
2018-06-04T21:32:43.495Z,4.30
2018-06-04T21:35:48.752Z,4.43
2018-06-04T21:38:53.038Z,4.53
2018-06-04T21:41:57.855Z,4.03
2018-06-04T21:45:04.655Z,5.10
2018-06-04T21:48:09.786Z,5.10
2018-06-04T21:51:14.060Z,4.93
2018-06-04T21:54:18.374Z,4.63
2018-06-04T21:57:22.682Z,4.53
2018-06-04T22:00:27.046Z,5.17
2018-06-04T22:03:31.484Z,4.57
2018-06-04T22:06:35.786Z,4.75
2018-06-04T22:09:40.106Z,4.67
2018-06-04T22:12:44.390Z,4.27
2018-06-04T22:15:48.624Z,5.20
2018-06-04T22:18:53.366Z,3.83
2018-06-04T22:21:57.774Z,5.10
2018-06-04T22:25:02.418Z,4.77
2018-06-04T22:28:06.685Z,5.27
2018-06-04T22:31:11.175Z,4.57
2018-06-04T22:34:15.499Z,4.50
2018-06-04T22:37:19.780Z,5.10
2018-06-04T22:40:24.050Z,4.67
2018-06-04T22:43:28.370Z,5.10
2018-06-04T22:46:32.786Z,5.23
2018-06-04T22:49:37.129Z,4.80
2018-06-04T22:52:41.498Z,4.63
2018-06-04T22:55:45.771Z,5.30
2018-06-04T22:58:50.067Z,4.50
2018-06-04T23:01:54.454Z,5.00
2018-06-04T23:04:58.749Z,4.87
2018-06-04T23:08:03.033Z,4.70
2018-06-04T23:11:07.313Z,4.83
2018-06-04T23:14:11.381Z,4.60
2018-06-04T23:17:15.771Z,5.13
2018-06-04T23:20:20.050Z,4.50
2018-06-04T23:23:24.667Z,4.10
2018-06-04T23:26:29.382Z,4.87
2018-06-04T23:29:33.874Z,4.40
2018-06-04T23:32:38.449Z,4.90
2018-06-04T23:35:42.745Z,4.30
2018-06-04T23:38:47.407Z,4.50
2018-06-04T23:41:52.346Z,4.00
2018-06-04T23:44:56.643Z,4.43
2018-06-04T23:48:00.920Z,4.17
2018-06-04T23:51:05.441Z,4.97
2018-06-04T23:54:09.722Z,4.67
2018-06-04T23:57:14.133Z,4.20
